KLM95T EHAM-EPWA
Flight info
| Callsign | KLM95T |
|---|---|
| Flight time | 1h 31m |
| Altitude | 39000 |
| Route | ARNEM L620 SUVOX Z718 OSNAD DCT HLZ DCT SUBIX DCT OBOKU DCT DOSIX DCT BIMPA |
| Aircraft | B739/M-SDE2E3FGIJ1RWYZ/LB1 |
Departure
| Time | 2026-05-06 16:47 |
|---|---|
| Airport | Amsterdam Airport Schiphol (EHAM) |
Arrival
| Time | 2026-05-06 18:19 |
|---|---|
| Airport | Warsaw Chopin Airport (EPWA) |
| Time | Latitude | Longitude | Altitude | Speed | Heading |
|---|---|---|---|---|---|
| 2026-05-06 16:22 | 52.31011 | 4.77180 | -2 ft | 0 kts | 183° |
| 2026-05-06 16:36 | 52.31018 | 4.77181 | -2 ft | 4 kts | 181° |
| 2026-05-06 16:36 | 52.31044 | 4.77178 | -2 ft | 4 kts | 173° |
| 2026-05-06 16:36 | 52.31068 | 4.77176 | -2 ft | 4 kts | 217° |
| 2026-05-06 16:37 | 52.31076 | 4.77202 | -2 ft | 4 kts | 261° |
| 2026-05-06 16:37 | 52.31077 | 4.77217 | -2 ft | 1 kts | 258° |
| 2026-05-06 16:38 | 52.31077 | 4.77215 | -2 ft | 1 kts | 258° |
| 2026-05-06 16:39 | 52.31078 | 4.77168 | -2 ft | 8 kts | 272° |
| 2026-05-06 16:39 | 52.31080 | 4.77085 | -2 ft | 13 kts | 272° |
| 2026-05-06 16:39 | 52.31110 | 4.76945 | -2 ft | 14 kts | 329° |
| 2026-05-06 16:39 | 52.31194 | 4.76986 | -2 ft | 13 kts | 32° |
| 2026-05-06 16:40 | 52.31268 | 4.77067 | -2 ft | 13 kts | 43° |
| 2026-05-06 16:40 | 52.31293 | 4.77245 | -2 ft | 12 kts | 91° |
| 2026-05-06 16:40 | 52.31288 | 4.77393 | -2 ft | 15 kts | 94° |
| 2026-05-06 16:40 | 52.31260 | 4.77496 | -2 ft | 15 kts | 152° |
| 2026-05-06 16:41 | 52.31151 | 4.77497 | -2 ft | 17 kts | 182° |
| 2026-05-06 16:41 | 52.31004 | 4.77485 | -2 ft | 25 kts | 183° |
| 2026-05-06 16:41 | 52.30816 | 4.77466 | -2 ft | 28 kts | 183° |
| 2026-05-06 16:41 | 52.30637 | 4.77410 | -2 ft | 26 kts | 231° |
| 2026-05-06 16:42 | 52.30543 | 4.77175 | -2 ft | 24 kts | 238° |
| 2026-05-06 16:42 | 52.30457 | 4.76950 | -2 ft | 23 kts | 237° |
| 2026-05-06 16:42 | 52.30373 | 4.76735 | -2 ft | 22 kts | 238° |
| 2026-05-06 16:42 | 52.30294 | 4.76523 | -2 ft | 21 kts | 238° |
| 2026-05-06 16:43 | 52.30217 | 4.76322 | -2 ft | 21 kts | 238° |
| 2026-05-06 16:43 | 52.30141 | 4.76123 | -2 ft | 20 kts | 238° |
| 2026-05-06 16:43 | 52.30068 | 4.75931 | -2 ft | 20 kts | 237° |
| 2026-05-06 16:43 | 52.29997 | 4.75745 | -2 ft | 19 kts | 238° |
| 2026-05-06 16:44 | 52.29927 | 4.75566 | -2 ft | 18 kts | 237° |
| 2026-05-06 16:44 | 52.29860 | 4.75392 | -2 ft | 18 kts | 239° |
| 2026-05-06 16:44 | 52.29846 | 4.75204 | -2 ft | 17 kts | 293° |
| 2026-05-06 16:44 | 52.29917 | 4.75056 | -2 ft | 17 kts | 310° |
| 2026-05-06 16:45 | 52.30003 | 4.74897 | -2 ft | 22 kts | 311° |
| 2026-05-06 16:45 | 52.30107 | 4.74703 | 4 ft | 23 kts | 311° |
| 2026-05-06 16:45 | 52.30210 | 4.74514 | 9 ft | 22 kts | 311° |
| 2026-05-06 16:45 | 52.30309 | 4.74325 | 3 ft | 24 kts | 310° |
| 2026-05-06 16:46 | 52.30412 | 4.74098 | -2 ft | 24 kts | 282° |
| 2026-05-06 16:46 | 52.30412 | 4.73840 | -3 ft | 18 kts | 274° |
| 2026-05-06 16:46 | 52.30471 | 4.73763 | -4 ft | 13 kts | 3° |
| 2026-05-06 16:46 | 52.30700 | 4.73784 | -2 ft | 68 kts | 3° |
| 2026-05-06 16:47 | 52.31425 | 4.73850 | -4 ft | 137 kts | 3° |
| 2026-05-06 16:47 | 52.32541 | 4.73971 | 197 ft | 172 kts | 5° |
| 2026-05-06 16:47 | 52.33746 | 4.74083 | 962 ft | 174 kts | 6° |
| 2026-05-06 16:47 | 52.34938 | 4.74605 | 1429 ft | 191 kts | 29° |
| 2026-05-06 16:48 | 52.36147 | 4.75833 | 1679 ft | 216 kts | 34° |
| 2026-05-06 16:48 | 52.37442 | 4.77221 | 2194 ft | 228 kts | 34° |
| 2026-05-06 16:48 | 52.38805 | 4.78765 | 2624 ft | 248 kts | 40° |
| 2026-05-06 16:48 | 52.40052 | 4.80663 | 3549 ft | 248 kts | 44° |
| 2026-05-06 16:49 | 52.41271 | 4.82662 | 4488 ft | 249 kts | 45° |
| 2026-05-06 16:49 | 52.42323 | 4.84919 | 5407 ft | 249 kts | 62° |
| 2026-05-06 16:49 | 52.42733 | 4.87705 | 6159 ft | 260 kts | 90° |
| 2026-05-06 16:49 | 52.42336 | 4.90654 | 6865 ft | 270 kts | 105° |
| 2026-05-06 16:50 | 52.41733 | 4.93613 | 7591 ft | 277 kts | 106° |
| 2026-05-06 16:50 | 52.41097 | 4.96629 | 8286 ft | 282 kts | 107° |
| 2026-05-06 16:50 | 52.40447 | 4.99681 | 9076 ft | 285 kts | 107° |
| 2026-05-06 16:50 | 52.39795 | 5.02751 | 9828 ft | 288 kts | 107° |
| 2026-05-06 16:51 | 52.39131 | 5.05910 | 10340 ft | 301 kts | 107° |
| 2026-05-06 16:51 | 52.38425 | 5.09295 | 10511 ft | 325 kts | 107° |
| 2026-05-06 16:51 | 52.37673 | 5.12913 | 10748 ft | 344 kts | 107° |
| 2026-05-06 16:51 | 52.37116 | 5.16706 | 11250 ft | 351 kts | 94° |
| 2026-05-06 16:52 | 52.37113 | 5.20711 | 11935 ft | 353 kts | 86° |
| 2026-05-06 16:52 | 52.37222 | 5.24747 | 12609 ft | 357 kts | 86° |
| 2026-05-06 16:52 | 52.37342 | 5.28831 | 13255 ft | 361 kts | 86° |
| 2026-05-06 16:52 | 52.37460 | 5.32932 | 13898 ft | 366 kts | 86° |
| 2026-05-06 16:53 | 52.37570 | 5.37136 | 14553 ft | 369 kts | 87° |
| 2026-05-06 16:53 | 52.37670 | 5.41359 | 15179 ft | 373 kts | 87° |
| 2026-05-06 16:53 | 52.37765 | 5.45630 | 15765 ft | 378 kts | 87° |
| 2026-05-06 16:53 | 52.37856 | 5.49963 | 16365 ft | 382 kts | 87° |
| 2026-05-06 16:54 | 52.37944 | 5.54317 | 16961 ft | 385 kts | 88° |
| 2026-05-06 16:54 | 52.38027 | 5.58671 | 17480 ft | 390 kts | 88° |
| 2026-05-06 16:54 | 52.38110 | 5.63134 | 18013 ft | 394 kts | 88° |
| 2026-05-06 16:54 | 52.38192 | 5.67638 | 18569 ft | 398 kts | 88° |
| 2026-05-06 16:55 | 52.38273 | 5.72177 | 19109 ft | 401 kts | 88° |
| 2026-05-06 16:55 | 52.38352 | 5.76761 | 19680 ft | 403 kts | 88° |
| 2026-05-06 16:55 | 52.38430 | 5.81366 | 20227 ft | 406 kts | 88° |
| 2026-05-06 16:55 | 52.38507 | 5.85998 | 20762 ft | 409 kts | 88° |
| 2026-05-06 16:56 | 52.38583 | 5.90665 | 21279 ft | 412 kts | 88° |
| 2026-05-06 16:56 | 52.38657 | 5.95368 | 21767 ft | 415 kts | 88° |
| 2026-05-06 16:56 | 52.38730 | 6.00105 | 22257 ft | 418 kts | 88° |
| 2026-05-06 16:56 | 52.38802 | 6.04867 | 22754 ft | 420 kts | 89° |
| 2026-05-06 16:57 | 52.38872 | 6.09657 | 23210 ft | 423 kts | 89° |
| 2026-05-06 16:57 | 52.38941 | 6.14493 | 23656 ft | 426 kts | 89° |
| 2026-05-06 16:57 | 52.39008 | 6.19347 | 24123 ft | 428 kts | 89° |
| 2026-05-06 16:57 | 52.39074 | 6.24228 | 24567 ft | 430 kts | 89° |
| 2026-05-06 16:58 | 52.39138 | 6.29146 | 25000 ft | 433 kts | 89° |
| 2026-05-06 16:58 | 52.39198 | 6.34026 | 25451 ft | 434 kts | 89° |
| 2026-05-06 16:58 | 52.39258 | 6.38980 | 25879 ft | 436 kts | 89° |
| 2026-05-06 16:58 | 52.39317 | 6.43949 | 26282 ft | 438 kts | 89° |
| 2026-05-06 16:59 | 52.39374 | 6.48942 | 26656 ft | 440 kts | 90° |
| 2026-05-06 16:59 | 52.39429 | 6.53969 | 27035 ft | 443 kts | 90° |
| 2026-05-06 16:59 | 52.39482 | 6.59012 | 27432 ft | 444 kts | 90° |
| 2026-05-06 16:59 | 52.39533 | 6.64078 | 27815 ft | 445 kts | 90° |
| 2026-05-06 17:00 | 52.39581 | 6.69166 | 28152 ft | 448 kts | 90° |
| 2026-05-06 17:00 | 52.39628 | 6.74272 | 28493 ft | 450 kts | 90° |
| 2026-05-06 17:00 | 52.39672 | 6.79409 | 28857 ft | 451 kts | 90° |
| 2026-05-06 17:00 | 52.39715 | 6.84558 | 29202 ft | 452 kts | 90° |
| 2026-05-06 17:01 | 52.39756 | 6.89722 | 29524 ft | 454 kts | 90° |
| 2026-05-06 17:01 | 52.39795 | 6.94911 | 29820 ft | 456 kts | 90° |
| 2026-05-06 17:01 | 52.39831 | 7.00107 | 30155 ft | 457 kts | 90° |
| 2026-05-06 17:01 | 52.39866 | 7.05306 | 30560 ft | 455 kts | 90° |
| 2026-05-06 17:02 | 52.39897 | 7.10436 | 30903 ft | 455 kts | 90° |
| 2026-05-06 17:02 | 52.39928 | 7.15626 | 31166 ft | 457 kts | 90° |
| 2026-05-06 17:02 | 52.39955 | 7.20840 | 31437 ft | 458 kts | 90° |
| 2026-05-06 17:02 | 52.39979 | 7.26053 | 31764 ft | 458 kts | 91° |
| 2026-05-06 17:03 | 52.40002 | 7.31278 | 32075 ft | 458 kts | 91° |
| 2026-05-06 17:03 | 52.40023 | 7.36507 | 32319 ft | 460 kts | 91° |
| 2026-05-06 17:03 | 52.40042 | 7.41751 | 32570 ft | 461 kts | 91° |
| 2026-05-06 17:03 | 52.40058 | 7.47011 | 32863 ft | 461 kts | 91° |
| 2026-05-06 17:04 | 52.40072 | 7.52270 | 33121 ft | 461 kts | 91° |
| 2026-05-06 17:04 | 52.40083 | 7.57533 | 33334 ft | 463 kts | 91° |
| 2026-05-06 17:04 | 52.40092 | 7.62739 | 33563 ft | 464 kts | 92° |
| 2026-05-06 17:04 | 52.40099 | 7.68025 | 33838 ft | 464 kts | 92° |
| 2026-05-06 17:05 | 52.40104 | 7.73314 | 34061 ft | 465 kts | 92° |
| 2026-05-06 17:05 | 52.40106 | 7.78622 | 34244 ft | 467 kts | 92° |
| 2026-05-06 17:05 | 52.40105 | 7.83944 | 34498 ft | 467 kts | 92° |
| 2026-05-06 17:05 | 52.40103 | 7.89249 | 34783 ft | 466 kts | 92° |
| 2026-05-06 17:06 | 52.40098 | 7.94564 | 35010 ft | 466 kts | 92° |
| 2026-05-06 17:06 | 52.40091 | 7.99886 | 35184 ft | 467 kts | 92° |
| 2026-05-06 17:06 | 52.40081 | 8.05208 | 35384 ft | 468 kts | 92° |
| 2026-05-06 17:06 | 52.40069 | 8.10545 | 35599 ft | 468 kts | 92° |
| 2026-05-06 17:07 | 52.40054 | 8.15869 | 35819 ft | 468 kts | 92° |
| 2026-05-06 17:07 | 52.40038 | 8.21197 | 36025 ft | 468 kts | 92° |
| 2026-05-06 17:07 | 52.40019 | 8.26513 | 36230 ft | 467 kts | 93° |
| 2026-05-06 17:07 | 52.39997 | 8.31830 | 36397 ft | 468 kts | 93° |
| 2026-05-06 17:08 | 52.39972 | 8.37107 | 36530 ft | 469 kts | 93° |
| 2026-05-06 17:08 | 52.39945 | 8.42456 | 36721 ft | 469 kts | 93° |
| 2026-05-06 17:08 | 52.39917 | 8.47780 | 36882 ft | 469 kts | 93° |
| 2026-05-06 17:09 | 52.39853 | 8.58450 | 36851 ft | 467 kts | 93° |
| 2026-05-06 17:09 | 52.39778 | 8.69054 | 36844 ft | 465 kts | 93° |
| 2026-05-06 17:10 | 52.39694 | 8.79617 | 36837 ft | 462 kts | 93° |
| 2026-05-06 17:10 | 52.39602 | 8.90129 | 36830 ft | 461 kts | 94° |
| 2026-05-06 17:11 | 52.39497 | 9.00635 | 36834 ft | 461 kts | 94° |
| 2026-05-06 17:11 | 52.39387 | 9.11086 | 36839 ft | 463 kts | 94° |
| 2026-05-06 17:12 | 52.39266 | 9.21658 | 36839 ft | 465 kts | 94° |
| 2026-05-06 17:12 | 52.39134 | 9.32281 | 36839 ft | 468 kts | 94° |
| 2026-05-06 17:13 | 52.38993 | 9.42959 | 36842 ft | 470 kts | 94° |
| 2026-05-06 17:13 | 52.38841 | 9.53684 | 36835 ft | 472 kts | 94° |
| 2026-05-06 17:14 | 52.38681 | 9.64445 | 36829 ft | 473 kts | 94° |
| 2026-05-06 17:14 | 52.38511 | 9.75141 | 36833 ft | 473 kts | 94° |
| 2026-05-06 17:15 | 52.38330 | 9.85903 | 36830 ft | 472 kts | 95° |
| 2026-05-06 17:15 | 52.38137 | 9.96623 | 36816 ft | 471 kts | 95° |
| 2026-05-06 17:16 | 52.37939 | 10.07322 | 36824 ft | 469 kts | 95° |
| 2026-05-06 17:16 | 52.37729 | 10.17986 | 36819 ft | 468 kts | 95° |
| 2026-05-06 17:17 | 52.37511 | 10.28633 | 36816 ft | 468 kts | 95° |
| 2026-05-06 17:17 | 52.37285 | 10.39262 | 36814 ft | 467 kts | 95° |
| 2026-05-06 17:18 | 52.37051 | 10.49873 | 36804 ft | 467 kts | 95° |
| 2026-05-06 17:18 | 52.36803 | 10.60489 | 36805 ft | 467 kts | 95° |
| 2026-05-06 17:19 | 52.36549 | 10.71117 | 36806 ft | 467 kts | 95° |
| 2026-05-06 17:19 | 52.36326 | 10.81755 | 36807 ft | 469 kts | 93° |
| 2026-05-06 17:20 | 52.36479 | 10.92445 | 36803 ft | 470 kts | 91° |
| 2026-05-06 17:20 | 52.36746 | 11.03071 | 36809 ft | 471 kts | 91° |
| 2026-05-06 17:21 | 52.36978 | 11.13794 | 36805 ft | 471 kts | 91° |
| 2026-05-06 17:21 | 52.37169 | 11.24527 | 36808 ft | 471 kts | 91° |
| 2026-05-06 17:22 | 52.37341 | 11.35243 | 36805 ft | 471 kts | 91° |
| 2026-05-06 17:22 | 52.37502 | 11.45976 | 36806 ft | 471 kts | 92° |
| 2026-05-06 17:23 | 52.37652 | 11.56703 | 36809 ft | 471 kts | 92° |
| 2026-05-06 17:23 | 52.37798 | 11.67425 | 36803 ft | 471 kts | 92° |
| 2026-05-06 17:24 | 52.37929 | 11.78074 | 36803 ft | 471 kts | 92° |
| 2026-05-06 17:24 | 52.38054 | 11.88808 | 36809 ft | 471 kts | 92° |
| 2026-05-06 17:25 | 52.38167 | 11.99525 | 36801 ft | 471 kts | 92° |
| 2026-05-06 17:25 | 52.38270 | 12.10246 | 36804 ft | 471 kts | 92° |
| 2026-05-06 17:26 | 52.38350 | 12.19154 | 36814 ft | 471 kts | 92° |
| 2026-05-06 17:26 | 52.38436 | 12.29888 | 36812 ft | 471 kts | 92° |
| 2026-05-06 17:27 | 52.38513 | 12.40628 | 36796 ft | 472 kts | 92° |
| 2026-05-06 17:27 | 52.38580 | 12.51372 | 36796 ft | 472 kts | 92° |
| 2026-05-06 17:28 | 52.38637 | 12.62127 | 36797 ft | 472 kts | 93° |
| 2026-05-06 17:28 | 52.38685 | 12.72900 | 36796 ft | 473 kts | 93° |
| 2026-05-06 17:29 | 52.38724 | 12.83679 | 36795 ft | 474 kts | 93° |
| 2026-05-06 17:29 | 52.38752 | 12.94460 | 36831 ft | 473 kts | 93° |
| 2026-05-06 17:30 | 52.38771 | 13.05180 | 36833 ft | 474 kts | 93° |
| 2026-05-06 17:30 | 52.38779 | 13.15977 | 36832 ft | 475 kts | 94° |
| 2026-05-06 17:31 | 52.38778 | 13.26802 | 36829 ft | 476 kts | 94° |
| 2026-05-06 17:31 | 52.38766 | 13.37646 | 36828 ft | 477 kts | 94° |
| 2026-05-06 17:32 | 52.38747 | 13.48509 | 36832 ft | 478 kts | 94° |
| 2026-05-06 17:32 | 52.38714 | 13.59383 | 36836 ft | 478 kts | 94° |
| 2026-05-06 17:33 | 52.38672 | 13.70235 | 36834 ft | 479 kts | 94° |
| 2026-05-06 17:33 | 52.38621 | 13.81151 | 36828 ft | 480 kts | 94° |
| 2026-05-06 17:34 | 52.38561 | 13.92084 | 36834 ft | 481 kts | 94° |
| 2026-05-06 17:34 | 52.38490 | 14.03050 | 36833 ft | 481 kts | 95° |
| 2026-05-06 17:35 | 52.38409 | 14.14020 | 36835 ft | 482 kts | 95° |
| 2026-05-06 17:35 | 52.38315 | 14.25004 | 36833 ft | 482 kts | 95° |
| 2026-05-06 17:36 | 52.38160 | 14.41384 | 36834 ft | 482 kts | 95° |
| 2026-05-06 17:36 | 52.38044 | 14.52331 | 36833 ft | 481 kts | 95° |
| 2026-05-06 17:37 | 52.37898 | 14.63289 | 36832 ft | 480 kts | 96° |
| 2026-05-06 17:37 | 52.37637 | 14.74192 | 36815 ft | 479 kts | 96° |
| 2026-05-06 17:38 | 52.37347 | 14.85070 | 36822 ft | 478 kts | 96° |
| 2026-05-06 17:38 | 52.37059 | 14.95881 | 36820 ft | 478 kts | 96° |
| 2026-05-06 17:39 | 52.36767 | 15.06759 | 36811 ft | 478 kts | 96° |
| 2026-05-06 17:39 | 52.36470 | 15.17623 | 36805 ft | 478 kts | 96° |
| 2026-05-06 17:40 | 52.36166 | 15.28492 | 36802 ft | 477 kts | 96° |
| 2026-05-06 17:40 | 52.35847 | 15.39351 | 36804 ft | 476 kts | 97° |
| 2026-05-06 17:41 | 52.35521 | 15.50106 | 36807 ft | 477 kts | 97° |
| 2026-05-06 17:41 | 52.35184 | 15.60951 | 36806 ft | 478 kts | 97° |
| 2026-05-06 17:42 | 52.34838 | 15.71816 | 36812 ft | 479 kts | 97° |
| 2026-05-06 17:42 | 52.34480 | 15.82702 | 36805 ft | 479 kts | 97° |
| 2026-05-06 17:43 | 52.34112 | 15.93591 | 36810 ft | 479 kts | 97° |
| 2026-05-06 17:43 | 52.33733 | 16.04498 | 36806 ft | 480 kts | 97° |
| 2026-05-06 17:44 | 52.33345 | 16.15389 | 36808 ft | 480 kts | 97° |
| 2026-05-06 17:44 | 52.32946 | 16.26283 | 36804 ft | 480 kts | 97° |
| 2026-05-06 17:45 | 52.32540 | 16.37115 | 36811 ft | 480 kts | 97° |
| 2026-05-06 17:45 | 52.32119 | 16.48019 | 36802 ft | 480 kts | 97° |
| 2026-05-06 17:46 | 52.31690 | 16.58907 | 36805 ft | 479 kts | 97° |
| 2026-05-06 17:46 | 52.31253 | 16.69775 | 36807 ft | 479 kts | 98° |
| 2026-05-06 17:47 | 52.30806 | 16.80621 | 36802 ft | 478 kts | 98° |
| 2026-05-06 17:47 | 52.30350 | 16.91462 | 36803 ft | 478 kts | 98° |
| 2026-05-06 17:48 | 52.29885 | 17.02225 | 36806 ft | 478 kts | 98° |
| 2026-05-06 17:48 | 52.29410 | 17.13052 | 36800 ft | 478 kts | 98° |
| 2026-05-06 17:49 | 52.28924 | 17.23871 | 36793 ft | 477 kts | 98° |
| 2026-05-06 17:49 | 52.28427 | 17.34685 | 36795 ft | 477 kts | 98° |
| 2026-05-06 17:50 | 52.27921 | 17.45502 | 36799 ft | 477 kts | 98° |
| 2026-05-06 17:50 | 52.27405 | 17.56311 | 36797 ft | 477 kts | 98° |
| 2026-05-06 17:51 | 52.26884 | 17.67059 | 36789 ft | 477 kts | 98° |
| 2026-05-06 17:51 | 52.26348 | 17.77866 | 36790 ft | 478 kts | 98° |
| 2026-05-06 17:52 | 52.25803 | 17.88701 | 36787 ft | 477 kts | 98° |
| 2026-05-06 17:52 | 52.25526 | 17.94123 | 36353 ft | 483 kts | 98° |
| 2026-05-06 17:52 | 52.25302 | 17.99610 | 35750 ft | 485 kts | 94° |
| 2026-05-06 17:53 | 52.25502 | 18.05098 | 35201 ft | 485 kts | 86° |
| 2026-05-06 17:53 | 52.25955 | 18.10531 | 34710 ft | 481 kts | 85° |
| 2026-05-06 17:53 | 52.26439 | 18.15907 | 34189 ft | 477 kts | 85° |
| 2026-05-06 17:53 | 52.26914 | 18.21173 | 33693 ft | 473 kts | 85° |
| 2026-05-06 17:54 | 52.27379 | 18.26483 | 33189 ft | 469 kts | 85° |
| 2026-05-06 17:54 | 52.27822 | 18.31739 | 32682 ft | 466 kts | 86° |
| 2026-05-06 17:54 | 52.28250 | 18.36959 | 32188 ft | 462 kts | 86° |
| 2026-05-06 17:54 | 52.28668 | 18.42160 | 31702 ft | 459 kts | 86° |
| 2026-05-06 17:55 | 52.29077 | 18.47309 | 31219 ft | 455 kts | 86° |
| 2026-05-06 17:55 | 52.29479 | 18.52422 | 30742 ft | 452 kts | 86° |
| 2026-05-06 17:55 | 52.29878 | 18.57495 | 30260 ft | 449 kts | 87° |
| 2026-05-06 17:55 | 52.30272 | 18.62545 | 29789 ft | 446 kts | 87° |
| 2026-05-06 17:56 | 52.30656 | 18.67485 | 29327 ft | 442 kts | 87° |
| 2026-05-06 17:56 | 52.31038 | 18.72427 | 28853 ft | 439 kts | 87° |
| 2026-05-06 17:56 | 52.31417 | 18.77351 | 28384 ft | 435 kts | 87° |
| 2026-05-06 17:56 | 52.31791 | 18.82247 | 27917 ft | 432 kts | 87° |
| 2026-05-06 17:57 | 52.32160 | 18.87104 | 27448 ft | 429 kts | 87° |
| 2026-05-06 17:57 | 52.32523 | 18.91919 | 26991 ft | 426 kts | 87° |
| 2026-05-06 17:57 | 52.32883 | 18.96707 | 26534 ft | 422 kts | 87° |
| 2026-05-06 17:57 | 52.33240 | 19.01474 | 26081 ft | 420 kts | 86° |
| 2026-05-06 17:58 | 52.33591 | 19.06196 | 25631 ft | 416 kts | 86° |
| 2026-05-06 17:58 | 52.33937 | 19.10878 | 25184 ft | 413 kts | 86° |
| 2026-05-06 17:58 | 52.34280 | 19.15532 | 24740 ft | 410 kts | 86° |
| 2026-05-06 17:58 | 52.34618 | 19.20160 | 24297 ft | 407 kts | 86° |
| 2026-05-06 17:59 | 52.34843 | 19.24674 | 23973 ft | 398 kts | 94° |
| 2026-05-06 17:59 | 52.34741 | 19.29133 | 23730 ft | 388 kts | 97° |
| 2026-05-06 17:59 | 52.34563 | 19.33503 | 23469 ft | 381 kts | 98° |
| 2026-05-06 17:59 | 52.34368 | 19.37806 | 23216 ft | 378 kts | 98° |
| 2026-05-06 18:00 | 52.34174 | 19.42117 | 22978 ft | 381 kts | 98° |
| 2026-05-06 18:00 | 52.33985 | 19.46470 | 22736 ft | 386 kts | 97° |
| 2026-05-06 18:00 | 52.33803 | 19.50865 | 22490 ft | 387 kts | 97° |
| 2026-05-06 18:00 | 52.33630 | 19.55239 | 22236 ft | 384 kts | 97° |
| 2026-05-06 18:01 | 52.33461 | 19.59586 | 21987 ft | 382 kts | 97° |
| 2026-05-06 18:01 | 52.33294 | 19.63907 | 21734 ft | 380 kts | 97° |
| 2026-05-06 18:01 | 52.33127 | 19.68212 | 21483 ft | 378 kts | 97° |
| 2026-05-06 18:01 | 52.32960 | 19.72500 | 21232 ft | 377 kts | 97° |
| 2026-05-06 18:02 | 52.32793 | 19.76708 | 20983 ft | 375 kts | 97° |
| 2026-05-06 18:02 | 52.32623 | 19.80966 | 20734 ft | 374 kts | 97° |
| 2026-05-06 18:02 | 52.32452 | 19.85205 | 20482 ft | 374 kts | 97° |
| 2026-05-06 18:02 | 52.32281 | 19.89440 | 20227 ft | 372 kts | 97° |
| 2026-05-06 18:03 | 52.32109 | 19.93651 | 19879 ft | 369 kts | 98° |
| 2026-05-06 18:03 | 52.31938 | 19.97816 | 19479 ft | 366 kts | 98° |
| 2026-05-06 18:03 | 52.31766 | 20.01957 | 19061 ft | 364 kts | 98° |
| 2026-05-06 18:03 | 52.31593 | 20.06081 | 18673 ft | 363 kts | 98° |
| 2026-05-06 18:04 | 52.31418 | 20.10196 | 18261 ft | 361 kts | 98° |
| 2026-05-06 18:04 | 52.31243 | 20.14296 | 17851 ft | 360 kts | 98° |
| 2026-05-06 18:04 | 52.31067 | 20.18372 | 17444 ft | 358 kts | 98° |
| 2026-05-06 18:04 | 52.30891 | 20.22425 | 17035 ft | 357 kts | 98° |
| 2026-05-06 18:05 | 52.30717 | 20.26402 | 16637 ft | 355 kts | 98° |
| 2026-05-06 18:05 | 52.30538 | 20.30470 | 16227 ft | 353 kts | 98° |
| 2026-05-06 18:05 | 52.30363 | 20.34417 | 15819 ft | 352 kts | 98° |
| 2026-05-06 18:05 | 52.30185 | 20.38390 | 15428 ft | 350 kts | 98° |
| 2026-05-06 18:06 | 52.30006 | 20.42350 | 15024 ft | 348 kts | 98° |
| 2026-05-06 18:06 | 52.29827 | 20.46290 | 14629 ft | 347 kts | 98° |
| 2026-05-06 18:06 | 52.29648 | 20.50215 | 14230 ft | 345 kts | 98° |
| 2026-05-06 18:06 | 52.29469 | 20.54113 | 13833 ft | 343 kts | 98° |
| 2026-05-06 18:07 | 52.29288 | 20.58003 | 13438 ft | 342 kts | 98° |
| 2026-05-06 18:07 | 52.29107 | 20.61867 | 13031 ft | 340 kts | 98° |
| 2026-05-06 18:07 | 52.28928 | 20.65707 | 12650 ft | 339 kts | 97° |
| 2026-05-06 18:07 | 52.28746 | 20.69529 | 12260 ft | 337 kts | 97° |
| 2026-05-06 18:08 | 52.28561 | 20.73337 | 11864 ft | 335 kts | 98° |
| 2026-05-06 18:08 | 52.28379 | 20.77135 | 11464 ft | 334 kts | 97° |
| 2026-05-06 18:08 | 52.28200 | 20.80851 | 11081 ft | 332 kts | 97° |
| 2026-05-06 18:08 | 52.28018 | 20.84594 | 10692 ft | 330 kts | 98° |
| 2026-05-06 18:09 | 52.27837 | 20.88319 | 10299 ft | 327 kts | 97° |
| 2026-05-06 18:09 | 52.27656 | 20.92008 | 9928 ft | 325 kts | 98° |
| 2026-05-06 18:09 | 52.27474 | 20.95678 | 9775 ft | 315 kts | 98° |
| 2026-05-06 18:09 | 52.27265 | 20.99232 | 9404 ft | 312 kts | 104° |
| 2026-05-06 18:10 | 52.26450 | 21.02408 | 9051 ft | 299 kts | 131° |
| 2026-05-06 18:10 | 52.24992 | 21.04726 | 8706 ft | 288 kts | 152° |
| 2026-05-06 18:10 | 52.23847 | 21.05793 | 8499 ft | 284 kts | 156° |
| 2026-05-06 18:10 | 52.21528 | 21.07750 | 8097 ft | 280 kts | 157° |
| 2026-05-06 18:11 | 52.19833 | 21.09186 | 7973 ft | 270 kts | 156° |
| 2026-05-06 18:11 | 52.18723 | 21.10135 | 7889 ft | 263 kts | 156° |
| 2026-05-06 18:11 | 52.16624 | 21.11935 | 7732 ft | 251 kts | 156° |
| 2026-05-06 18:11 | 52.15106 | 21.13241 | 7567 ft | 244 kts | 156° |
| 2026-05-06 18:12 | 52.14093 | 21.14121 | 7385 ft | 243 kts | 156° |
| 2026-05-06 18:12 | 52.12629 | 21.15402 | 7106 ft | 241 kts | 156° |
| 2026-05-06 18:12 | 52.11156 | 21.16691 | 6822 ft | 240 kts | 156° |
| 2026-05-06 18:12 | 52.09705 | 21.17963 | 6559 ft | 237 kts | 156° |
| 2026-05-06 18:13 | 52.08253 | 21.19232 | 6211 ft | 235 kts | 156° |
| 2026-05-06 18:13 | 52.06808 | 21.20495 | 5771 ft | 236 kts | 156° |
| 2026-05-06 18:13 | 52.05349 | 21.21740 | 5349 ft | 235 kts | 161° |
| 2026-05-06 18:13 | 52.03788 | 21.21997 | 4885 ft | 226 kts | 199° |
| 2026-05-06 18:14 | 52.02486 | 21.20669 | 4473 ft | 222 kts | 227° |
| 2026-05-06 18:14 | 52.01647 | 21.18569 | 4033 ft | 223 kts | 248° |
| 2026-05-06 18:14 | 52.01375 | 21.16148 | 3714 ft | 221 kts | 266° |
| 2026-05-06 18:14 | 52.01342 | 21.13692 | 3422 ft | 213 kts | 266° |
| 2026-05-06 18:15 | 52.01392 | 21.11330 | 3113 ft | 208 kts | 282° |
| 2026-05-06 18:15 | 52.02203 | 21.09517 | 3006 ft | 196 kts | 324° |
| 2026-05-06 18:15 | 52.03374 | 21.08403 | 2975 ft | 195 kts | 326° |
| 2026-05-06 18:15 | 52.04553 | 21.07275 | 2775 ft | 197 kts | 327° |
| 2026-05-06 18:16 | 52.05741 | 21.06213 | 2511 ft | 192 kts | 328° |
| 2026-05-06 18:16 | 52.06899 | 21.05198 | 2259 ft | 186 kts | 329° |
| 2026-05-06 18:16 | 52.07996 | 21.04238 | 2033 ft | 171 kts | 329° |
| 2026-05-06 18:16 | 52.08997 | 21.03358 | 1844 ft | 162 kts | 330° |
| 2026-05-06 18:17 | 52.09991 | 21.02486 | 1607 ft | 160 kts | 330° |
| 2026-05-06 18:17 | 52.10960 | 21.01634 | 1379 ft | 156 kts | 330° |
| 2026-05-06 18:17 | 52.11901 | 21.00794 | 1156 ft | 154 kts | 330° |
| 2026-05-06 18:17 | 52.12843 | 20.99964 | 946 ft | 154 kts | 331° |
| 2026-05-06 18:18 | 52.13786 | 20.99145 | 750 ft | 156 kts | 331° |
| 2026-05-06 18:18 | 52.14740 | 20.98309 | 546 ft | 155 kts | 331° |
| 2026-05-06 18:18 | 52.15684 | 20.97488 | 367 ft | 153 kts | 331° |
| 2026-05-06 18:18 | 52.16547 | 20.96734 | 339 ft | 115 kts | 332° |
| 2026-05-06 18:19 | 52.17059 | 20.96284 | 334 ft | 54 kts | 332° |
| 2026-05-06 18:19 | 52.17342 | 20.96078 | 334 ft | 29 kts | 349° |
| 2026-05-06 18:19 | 52.17517 | 20.96063 | 337 ft | 21 kts | 8° |
| 2026-05-06 18:19 | 52.17567 | 20.96226 | 333 ft | 19 kts | 128° |
| 2026-05-06 18:20 | 52.17464 | 20.96336 | 338 ft | 17 kts | 149° |
| 2026-05-06 18:20 | 52.17463 | 20.96497 | 338 ft | 15 kts | 75° |
| 2026-05-06 18:20 | 52.17410 | 20.96618 | 334 ft | 14 kts | 151° |
| 2026-05-06 18:20 | 52.17325 | 20.96693 | 336 ft | 13 kts | 152° |
| 2026-05-06 18:21 | 52.17245 | 20.96763 | 338 ft | 13 kts | 152° |
| 2026-05-06 18:21 | 52.17167 | 20.96833 | 335 ft | 13 kts | 151° |
| 2026-05-06 18:21 | 52.17100 | 20.96892 | 336 ft | 6 kts | 152° |
| 2026-05-06 18:21 | 52.17073 | 20.96921 | 336 ft | 4 kts | 131° |
| 2026-05-06 18:22 | 52.17075 | 20.96968 | 338 ft | 4 kts | 66° |
| 2026-05-06 18:22 | 52.17086 | 20.97014 | 337 ft | 4 kts | 73° |
| 2026-05-06 18:22 | 52.17094 | 20.97060 | 336 ft | 3 kts | 74° |
| 2026-05-06 18:22 | 52.17094 | 20.97061 | 334 ft | 0 kts | 74° |